createdAt,value
2018-09-01T00:00:21.662Z,15.91
2018-09-01T00:02:53.254Z,15.87
2018-09-01T00:05:23.895Z,15.88
2018-09-01T00:07:54.044Z,15.97
2018-09-01T00:10:25.121Z,16.00
2018-09-01T00:12:55.684Z,16.02
2018-09-01T00:15:25.775Z,16.10
2018-09-01T00:17:56.681Z,16.11
2018-09-01T00:20:26.650Z,16.09
2018-09-01T00:22:56.750Z,15.98
2018-09-01T00:25:26.861Z,15.94
2018-09-01T00:27:58.390Z,16.04
2018-09-01T00:30:29.295Z,16.07
2018-09-01T00:33:00.802Z,16.00
2018-09-01T00:35:30.940Z,16.03
2018-09-01T00:38:06.360Z,16.09
2018-09-01T00:40:38.369Z,16.14
2018-09-01T00:43:09.914Z,16.21
2018-09-01T00:45:41.286Z,16.18
2018-09-01T00:48:13.346Z,16.25
2018-09-01T00:50:44.177Z,16.21
2018-09-01T00:53:19.302Z,16.29
2018-09-01T00:55:50.351Z,16.28
2018-09-01T00:58:21.115Z,16.25
2018-09-01T01:00:52.164Z,16.20
2018-09-01T01:03:23.723Z,16.11
2018-09-01T01:05:54.686Z,16.06
2018-09-01T01:08:25.498Z,16.11
2018-09-01T01:11:01.643Z,16.16
2018-09-01T01:13:34.525Z,16.20
2018-09-01T01:16:05.344Z,16.18
2018-09-01T01:18:35.600Z,16.18
2018-09-01T01:21:06.481Z,16.17
2018-09-01T01:23:37.747Z,16.18
2018-09-01T01:26:09.426Z,16.25
2018-09-01T01:28:39.881Z,16.28
2018-09-01T01:31:10.699Z,16.24
2018-09-01T01:33:40.911Z,16.15
2018-09-01T01:36:11.700Z,16.19
2018-09-01T01:38:41.832Z,16.18
2018-09-01T01:41:12.536Z,16.15
2018-09-01T01:43:44.521Z,16.08
2018-09-01T01:46:14.684Z,16.05
2018-09-01T01:48:45.441Z,16.11
2018-09-01T01:51:15.510Z,16.20
2018-09-01T01:53:46.723Z,16.25
2018-09-01T01:56:18.992Z,16.22
2018-09-01T01:58:49.356Z,16.14
2018-09-01T02:01:19.373Z,16.17
2018-09-01T02:03:50.150Z,16.16
2018-09-01T02:06:20.262Z,16.15
2018-09-01T02:08:55.418Z,16.20
2018-09-01T02:11:25.741Z,16.17
2018-09-01T02:13:55.922Z,16.10
2018-09-01T02:16:28.183Z,16.12
2018-09-01T02:18:59.211Z,16.16
2018-09-01T02:21:29.835Z,16.18
2018-09-01T02:24:01.165Z,16.26
2018-09-01T02:26:34.213Z,16.15
2018-09-01T02:29:06.694Z,16.15
2018-09-01T02:31:37.559Z,16.14
2018-09-01T02:34:08.494Z,16.20
2018-09-01T02:36:39.839Z,16.15
2018-09-01T02:39:11.013Z,16.11
2018-09-01T02:41:45.603Z,16.12
2018-09-01T02:44:22.390Z,16.05
2018-09-01T02:46:53.094Z,16.10
2018-09-01T02:49:23.144Z,16.13
2018-09-01T02:51:53.724Z,16.15
2018-09-01T02:54:24.482Z,16.11
2018-09-01T02:56:55.594Z,16.08
2018-09-01T02:59:25.806Z,16.04
2018-09-01T03:01:56.838Z,16.05
2018-09-01T03:04:27.940Z,16.08
2018-09-01T03:07:01.240Z,16.08
2018-09-01T03:09:31.267Z,16.02
2018-09-01T03:12:03.788Z,15.94
2018-09-01T03:14:33.780Z,15.93
2018-09-01T03:17:04.578Z,15.92
2018-09-01T03:19:34.719Z,15.94
2018-09-01T03:22:04.910Z,15.91
2018-09-01T03:24:35.128Z,15.90
2018-09-01T03:27:05.966Z,15.93
2018-09-01T03:29:36.748Z,15.93
2018-09-01T03:32:09.224Z,15.92
2018-09-01T03:34:39.640Z,15.85
2018-09-01T03:37:09.882Z,15.89
2018-09-01T03:39:40.008Z,15.87
2018-09-01T03:42:18.993Z,15.83
2018-09-01T03:44:50.268Z,15.84
2018-09-01T03:47:21.878Z,15.80
2018-09-01T03:49:52.697Z,15.88
2018-09-01T03:52:23.460Z,15.88
2018-09-01T03:54:56.090Z,15.86
2018-09-01T03:57:27.498Z,15.87
2018-09-01T03:59:58.442Z,15.90
2018-09-01T04:02:28.815Z,15.86
2018-09-01T04:04:59.078Z,15.80
2018-09-01T04:07:30.951Z,15.87
2018-09-01T04:10:01.674Z,15.85
2018-09-01T04:12:31.730Z,15.79
2018-09-01T04:15:01.710Z,15.71
2018-09-01T04:17:31.842Z,15.71
2018-09-01T04:20:03.417Z,15.71
2018-09-01T04:22:34.500Z,15.70
2018-09-01T04:25:05.316Z,15.69
2018-09-01T04:27:35.764Z,15.70
2018-09-01T04:30:06.271Z,15.65
2018-09-01T04:32:36.867Z,15.59
2018-09-01T04:35:08.420Z,15.64
2018-09-01T04:37:38.508Z,15.72
2018-09-01T04:40:08.719Z,15.71
2018-09-01T04:42:38.780Z,15.70
2018-09-01T04:45:10.336Z,15.75
2018-09-01T04:47:42.446Z,15.81
2018-09-01T04:50:14.072Z,15.82
2018-09-01T04:52:44.377Z,15.83
2018-09-01T04:55:14.473Z,15.83
2018-09-01T04:57:44.577Z,15.80
2018-09-01T05:00:20.976Z,15.86
2018-09-01T05:02:52.720Z,15.91
2018-09-01T05:05:25.028Z,15.93
2018-09-01T05:07:56.548Z,15.96
2018-09-01T05:10:28.542Z,16.00
2018-09-01T05:13:01.150Z,16.02
2018-09-01T05:15:32.135Z,15.99
2018-09-01T05:18:03.596Z,15.98
2018-09-01T05:20:35.806Z,16.02
2018-09-01T05:23:09.244Z,16.00
2018-09-01T05:25:41.300Z,16.00
2018-09-01T05:28:12.805Z,16.02
2018-09-01T05:30:43.010Z,16.08
2018-09-01T05:33:14.884Z,16.09
2018-09-01T05:35:46.299Z,16.06
2018-09-01T05:38:17.546Z,16.02
2018-09-01T05:40:47.669Z,15.97
2018-09-01T05:43:17.897Z,15.89
2018-09-01T05:45:48.941Z,15.96
2018-09-01T05:48:22.274Z,16.03
2018-09-01T05:50:54.189Z,16.02
2018-09-01T05:53:29.377Z,16.07
2018-09-01T05:55:59.577Z,16.18
2018-09-01T05:58:29.726Z,16.26
2018-09-01T06:01:05.856Z,16.33
2018-09-01T06:03:42.302Z,16.46
2018-09-01T06:06:18.467Z,16.61
2018-09-01T06:08:48.882Z,16.77
2018-09-01T06:11:20.453Z,16.77
2018-09-01T06:13:51.207Z,16.83
2018-09-01T06:16:21.288Z,16.85
2018-09-01T06:18:51.739Z,16.88
2018-09-01T06:21:23.676Z,16.73
2018-09-01T06:23:53.801Z,16.62
2018-09-01T06:26:25.931Z,16.57
2018-09-01T06:29:09.282Z,16.50
2018-09-01T06:31:42.402Z,16.64
2018-09-01T06:34:14.090Z,16.65
2018-09-01T06:36:44.821Z,16.77
2018-09-01T06:39:15.970Z,16.91
2018-09-01T06:41:46.965Z,17.15
2018-09-01T06:44:18.602Z,17.18
2018-09-01T06:46:48.985Z,17.35
2018-09-01T06:49:20.969Z,17.41
2018-09-01T06:51:51.570Z,17.58
2018-09-01T06:54:22.187Z,17.89
2018-09-01T06:56:53.849Z,18.04
2018-09-01T06:59:25.607Z,18.20
2018-09-01T07:01:57.623Z,18.47
2018-09-01T07:04:27.986Z,18.82
2018-09-01T07:06:58.847Z,19.75
2018-09-01T07:09:29.134Z,20.46
2018-09-01T07:12:00.496Z,21.03
2018-09-01T07:14:31.709Z,21.91
2018-09-01T07:17:01.962Z,21.99
2018-09-01T07:19:32.633Z,22.45
2018-09-01T07:22:06.783Z,23.42
2018-09-01T07:24:37.929Z,23.67
2018-09-01T07:27:08.065Z,23.93
2018-09-01T07:29:39.133Z,24.68
2018-09-01T07:32:10.021Z,24.71
2018-09-01T07:34:41.399Z,24.60
2018-09-01T07:37:12.192Z,24.53
2018-09-01T07:39:42.307Z,23.64
2018-09-01T07:42:12.735Z,23.77
2018-09-01T07:44:49.368Z,23.44
2018-09-01T07:47:20.707Z,23.85
2018-09-01T07:49:52.523Z,24.07
2018-09-01T07:52:27.178Z,24.33
2018-09-01T07:54:58.747Z,24.56
2018-09-01T07:57:31.731Z,24.73
2018-09-01T08:00:03.392Z,24.57
2018-09-01T08:02:35.351Z,24.69
2018-09-01T08:05:06.543Z,24.36
2018-09-01T08:07:37.975Z,23.70
2018-09-01T08:10:08.801Z,23.87
2018-09-01T08:12:39.690Z,23.83
2018-09-01T08:15:10.407Z,24.03
2018-09-01T08:17:41.099Z,23.64
2018-09-01T08:20:11.993Z,23.21
2018-09-01T08:22:42.011Z,23.14
2018-09-01T08:25:12.217Z,23.30
2018-09-01T08:27:44.111Z,23.00
2018-09-01T08:30:19.463Z,22.80
2018-09-01T08:32:49.673Z,22.88
2018-09-01T08:35:21.094Z,22.92
2018-09-01T08:37:51.756Z,23.10
2018-09-01T08:40:21.893Z,23.06
2018-09-01T08:42:52.103Z,22.77
2018-09-01T08:45:22.625Z,22.76
2018-09-01T08:47:53.744Z,22.50
2018-09-01T08:50:24.166Z,22.28
2018-09-01T08:52:54.812Z,21.95
2018-09-01T08:55:24.943Z,21.94
2018-09-01T08:57:55.116Z,21.88
2018-09-01T09:00:25.322Z,21.82
2018-09-01T09:02:59.906Z,21.99
2018-09-01T09:05:30.840Z,22.01
2018-09-01T09:08:01.330Z,22.21
2018-09-01T09:10:31.604Z,22.15
2018-09-01T09:13:02.981Z,22.02
2018-09-01T09:15:34.304Z,22.25
2018-09-01T09:18:06.016Z,22.60
2018-09-01T09:20:36.238Z,22.78
2018-09-01T09:23:07.713Z,22.59
2018-09-01T09:25:39.216Z,22.37
2018-09-01T09:28:09.696Z,22.60
2018-09-01T09:30:40.269Z,23.19
2018-09-01T09:33:11.148Z,23.36
2018-09-01T09:35:42.275Z,23.73
2018-09-01T09:38:14.765Z,24.19
2018-09-01T09:40:48.125Z,24.87
2018-09-01T09:43:20.058Z,25.72
2018-09-01T09:45:50.897Z,26.11
2018-09-01T09:48:22.478Z,25.60
2018-09-01T09:50:52.933Z,25.20
2018-09-01T09:53:23.506Z,25.09
2018-09-01T09:55:56.176Z,24.86
2018-09-01T09:58:26.310Z,24.63
2018-09-01T10:01:04.160Z,24.64
2018-09-01T10:03:36.469Z,24.24
2018-09-01T10:06:06.623Z,23.98
2018-09-01T10:08:37.194Z,24.05
2018-09-01T10:11:08.130Z,24.65
2018-09-01T10:13:38.497Z,24.77
2018-09-01T10:16:08.878Z,25.15
2018-09-01T10:18:39.400Z,25.20
2018-09-01T10:21:12.362Z,25.21
2018-09-01T10:23:44.995Z,25.53
2018-09-01T10:26:16.399Z,25.45
2018-09-01T10:28:49.874Z,25.28
2018-09-01T10:31:22.284Z,25.17
2018-09-01T10:33:54.182Z,24.98
2018-09-01T10:36:34.012Z,24.79
2018-09-01T10:39:05.313Z,24.33
2018-09-01T10:41:36.055Z,25.03
2018-09-01T10:44:06.943Z,25.52
2018-09-01T10:46:37.440Z,25.60
2018-09-01T10:49:09.775Z,25.76
2018-09-01T10:51:41.525Z,26.07
2018-09-01T10:54:12.169Z,26.80
2018-09-01T10:56:44.249Z,27.31
2018-09-01T10:59:14.591Z,27.28
2018-09-01T11:01:44.783Z,26.90
2018-09-01T11:04:14.962Z,26.61
2018-09-01T11:06:45.072Z,26.51
2018-09-01T11:09:15.161Z,25.94
2018-09-01T11:11:45.355Z,26.65
2018-09-01T11:14:15.546Z,27.06
2018-09-01T11:16:46.836Z,27.17
2018-09-01T11:19:16.927Z,26.88
2018-09-01T11:21:47.008Z,26.11
2018-09-01T11:24:17.019Z,25.91
2018-09-01T11:26:47.194Z,26.32
2018-09-01T11:29:17.870Z,26.74
2018-09-01T11:31:50.497Z,26.22
2018-09-01T11:34:20.922Z,26.12
2018-09-01T11:36:51.016Z,25.63
2018-09-01T11:39:23.160Z,25.25
2018-09-01T11:41:53.802Z,25.16
2018-09-01T11:44:23.897Z,25.19
2018-09-01T11:46:54.317Z,24.80
2018-09-01T11:49:26.484Z,24.50
2018-09-01T11:51:57.691Z,23.82
2018-09-01T11:54:28.015Z,23.64
2018-09-01T11:57:00.616Z,23.61
2018-09-01T11:59:32.021Z,23.44
2018-09-01T12:02:04.707Z,23.39
2018-09-01T12:04:36.718Z,23.54
2018-09-01T12:07:09.371Z,23.49
2018-09-01T12:09:40.412Z,23.40
2018-09-01T12:12:11.082Z,23.42
2018-09-01T12:14:42.447Z,23.38
2018-09-01T12:17:12.994Z,23.71
2018-09-01T12:19:43.345Z,23.64
2018-09-01T12:22:14.170Z,23.97
2018-09-01T12:24:45.029Z,24.34
2018-09-01T12:27:17.174Z,24.29
2018-09-01T12:29:48.076Z,24.13
2018-09-01T12:32:18.474Z,23.92
2018-09-01T12:34:49.878Z,23.78
2018-09-01T12:37:20.567Z,23.87
2018-09-01T12:39:51.995Z,23.80
2018-09-01T12:42:22.031Z,23.89
2018-09-01T12:44:54.008Z,23.54
2018-09-01T12:47:24.195Z,23.12
2018-09-01T12:49:54.306Z,22.77
2018-09-01T12:52:24.782Z,22.67
2018-09-01T12:54:56.403Z,22.61
2018-09-01T12:57:27.940Z,22.35
2018-09-01T12:59:58.967Z,22.08
2018-09-01T13:02:29.558Z,22.22
2018-09-01T13:05:01.195Z,22.24
2018-09-01T13:07:31.334Z,22.36
2018-09-01T13:10:01.473Z,22.55
2018-09-01T13:12:32.138Z,22.73
2018-09-01T13:15:04.026Z,22.88
2018-09-01T13:17:34.127Z,22.91
2018-09-01T13:20:04.204Z,22.65
2018-09-01T13:22:34.470Z,22.70
2018-09-01T13:25:05.943Z,22.92
2018-09-01T13:27:38.938Z,22.88
2018-09-01T13:30:10.080Z,23.19
2018-09-01T13:32:41.804Z,23.32
2018-09-01T13:35:11.989Z,23.29
2018-09-01T13:37:42.901Z,23.09
2018-09-01T13:40:14.347Z,22.88
2018-09-01T13:42:45.119Z,22.90
2018-09-01T13:45:16.463Z,22.98
2018-09-01T13:47:47.044Z,23.12
2018-09-01T13:50:20.588Z,23.06
2018-09-01T13:52:51.297Z,22.80
2018-09-01T13:55:22.319Z,22.68
2018-09-01T13:57:53.166Z,23.15
2018-09-01T14:00:23.895Z,23.29
2018-09-01T14:02:54.480Z,23.31
2018-09-01T14:05:26.218Z,23.53
2018-09-01T14:07:58.168Z,23.60
2018-09-01T14:10:29.133Z,23.21
2018-09-01T14:13:00.348Z,23.16
2018-09-01T14:15:32.395Z,23.14
2018-09-01T14:18:05.386Z,22.88
2018-09-01T14:20:36.364Z,22.36
2018-09-01T14:23:09.811Z,22.25
2018-09-01T14:25:40.627Z,22.02
2018-09-01T14:28:11.597Z,21.77
2018-09-01T14:30:43.159Z,21.71
2018-09-01T14:33:13.700Z,21.67
2018-09-01T14:35:46.193Z,21.60
2018-09-01T14:38:17.517Z,21.53
2018-09-01T14:40:47.938Z,21.57
2018-09-01T14:43:19.016Z,21.40
2018-09-01T14:45:50.134Z,21.37
2018-09-01T14:48:21.958Z,21.40
2018-09-01T14:50:52.256Z,21.42
2018-09-01T14:53:23.838Z,21.47
2018-09-01T14:55:53.904Z,21.45
2018-09-01T14:58:24.884Z,21.55
2018-09-01T15:00:55.953Z,21.28
2018-09-01T15:03:26.666Z,21.10
2018-09-01T15:05:57.528Z,20.69
2018-09-01T15:08:27.693Z,20.41
2018-09-01T15:10:59.507Z,20.39
2018-09-01T15:13:31.500Z,20.31
2018-09-01T15:16:01.677Z,20.47
2018-09-01T15:18:32.641Z,20.32
2018-09-01T15:21:02.878Z,20.52
2018-09-01T15:23:33.786Z,20.56
2018-09-01T15:26:04.953Z,20.39
2018-09-01T15:28:35.625Z,20.36
2018-09-01T15:31:06.158Z,20.48
2018-09-01T15:33:37.847Z,20.54
2018-09-01T15:36:10.097Z,20.46
2018-09-01T15:38:40.771Z,20.16
2018-09-01T15:41:13.153Z,20.08
2018-09-01T15:43:43.758Z,20.24
2018-09-01T15:46:15.076Z,20.04
2018-09-01T15:48:46.170Z,19.88
2018-09-01T15:51:18.427Z,19.76
2018-09-01T15:53:49.564Z,19.73
2018-09-01T15:56:24.828Z,19.83
2018-09-01T15:58:55.600Z,19.82
2018-09-01T16:01:27.943Z,19.84
2018-09-01T16:03:58.041Z,19.79
2018-09-01T16:06:28.246Z,19.71
2018-09-01T16:08:58.631Z,19.67
2018-09-01T16:11:28.833Z,19.63
2018-09-01T16:13:59.886Z,19.47
2018-09-01T16:16:30.725Z,19.43
2018-09-01T16:19:01.888Z,19.39
2018-09-01T16:21:32.288Z,19.32
2018-09-01T16:24:04.925Z,19.29
2018-09-01T16:26:35.818Z,19.27
2018-09-01T16:29:07.106Z,19.18
2018-09-01T16:31:37.619Z,19.07
2018-09-01T16:34:07.654Z,18.90
2018-09-01T16:36:37.925Z,18.89
2018-09-01T16:39:08.359Z,18.85
2018-09-01T16:41:38.752Z,18.83
2018-09-01T16:44:09.494Z,18.80
2018-09-01T16:46:39.975Z,18.89
2018-09-01T16:49:16.446Z,18.89
2018-09-01T16:51:48.956Z,18.81
2018-09-01T16:54:23.039Z,18.74
2018-09-01T16:56:59.970Z,18.67
2018-09-01T16:59:31.255Z,18.74
2018-09-01T17:02:01.465Z,18.62
2018-09-01T17:04:33.778Z,18.68
2018-09-01T17:07:04.048Z,18.58
2018-09-01T17:09:35.395Z,18.62
2018-09-01T17:12:06.021Z,18.54
2018-09-01T17:14:36.226Z,18.56
2018-09-01T17:17:06.820Z,18.63
2018-09-01T17:19:38.026Z,18.61
2018-09-01T17:22:09.177Z,18.60
2018-09-01T17:24:40.640Z,18.48
2018-09-01T17:27:10.732Z,18.50
2018-09-01T17:29:52.002Z,18.50
2018-09-01T17:32:22.222Z,18.55
2018-09-01T17:34:52.331Z,18.49
2018-09-01T17:37:22.600Z,18.41
2018-09-01T17:39:53.452Z,18.42
2018-09-01T17:42:23.684Z,18.28
2018-09-01T17:44:54.662Z,18.29
2018-09-01T17:47:24.764Z,18.16
2018-09-01T17:50:00.279Z,18.13
2018-09-01T17:52:32.016Z,18.12
2018-09-01T17:55:05.348Z,18.13
2018-09-01T17:57:37.424Z,18.17
2018-09-01T18:00:08.132Z,18.19
2018-09-01T18:02:38.801Z,18.24
2018-09-01T18:05:09.377Z,18.16
2018-09-01T18:07:40.730Z,18.21
2018-09-01T18:10:13.915Z,18.17
2018-09-01T18:12:48.343Z,18.16
2018-09-01T18:15:20.539Z,18.13
2018-09-01T18:17:51.104Z,18.20
2018-09-01T18:20:22.267Z,18.12
2018-09-01T18:22:52.935Z,18.06
2018-09-01T18:25:23.885Z,18.02
2018-09-01T18:27:54.793Z,18.06
2018-09-01T18:30:24.898Z,18.06
2018-09-01T18:32:54.991Z,17.99
2018-09-01T18:35:25.385Z,17.97
2018-09-01T18:37:56.151Z,17.93
2018-09-01T18:40:27.505Z,17.97
2018-09-01T18:42:57.530Z,17.89
2018-09-01T18:45:27.639Z,17.85
2018-09-01T18:47:58.529Z,17.77
2018-09-01T18:50:29.993Z,17.77
2018-09-01T18:53:00.035Z,17.75
2018-09-01T18:55:30.645Z,17.75
2018-09-01T18:58:01.580Z,17.82
2018-09-01T19:00:33.688Z,17.82
2018-09-01T19:03:03.877Z,17.85
2018-09-01T19:05:34.572Z,17.79
2018-09-01T19:08:04.871Z,17.72
2018-09-01T19:10:35.043Z,17.70
2018-09-01T19:13:05.784Z,17.73
2018-09-01T19:15:36.919Z,17.61
2018-09-01T19:18:09.146Z,17.61
2018-09-01T19:20:40.406Z,17.59
2018-09-01T19:23:11.481Z,17.43
2018-09-01T19:25:42.975Z,17.30
2018-09-01T19:28:14.126Z,17.29
2018-09-01T19:30:47.366Z,17.11
2018-09-01T19:33:18.860Z,17.10
2018-09-01T19:35:50.679Z,16.81
2018-09-01T19:38:22.941Z,16.63
2018-09-01T19:40:54.258Z,16.60
2018-09-01T19:43:25.594Z,16.65
2018-09-01T19:45:55.955Z,16.65
2018-09-01T19:48:27.238Z,16.72
2018-09-01T19:50:58.169Z,16.79
2018-09-01T19:53:29.989Z,16.81
2018-09-01T19:56:00.230Z,16.85
2018-09-01T19:58:31.752Z,16.92
2018-09-01T20:01:03.166Z,17.07
2018-09-01T20:03:33.822Z,17.26
2018-09-01T20:06:05.951Z,17.27
2018-09-01T20:08:37.094Z,17.38
2018-09-01T20:11:07.677Z,17.43
2018-09-01T20:13:39.392Z,17.42
2018-09-01T20:16:09.533Z,17.47
2018-09-01T20:18:40.654Z,17.50
2018-09-01T20:21:12.324Z,17.57
2018-09-01T20:23:43.277Z,17.64
2018-09-01T20:26:14.520Z,17.62
2018-09-01T20:28:45.527Z,17.67
2018-09-01T20:31:16.198Z,17.70
2018-09-01T20:33:47.351Z,17.73
2018-09-01T20:36:23.294Z,17.72
2018-09-01T20:38:54.687Z,17.69
2018-09-01T20:41:25.350Z,17.74
2018-09-01T20:43:56.108Z,17.72
2018-09-01T20:46:26.721Z,17.75
2018-09-01T20:48:57.282Z,17.76
2018-09-01T20:51:28.330Z,17.78
2018-09-01T20:53:59.712Z,17.76
2018-09-01T20:56:30.404Z,17.73
2018-09-01T20:59:00.825Z,17.74
2018-09-01T21:01:31.446Z,17.74
2018-09-01T21:04:02.303Z,17.74
2018-09-01T21:06:34.640Z,17.72
2018-09-01T21:09:08.158Z,17.75
2018-09-01T21:11:39.064Z,17.79
2018-09-01T21:14:10.844Z,17.75
2018-09-01T21:16:42.086Z,17.72
2018-09-01T21:19:12.429Z,17.80
2018-09-01T21:21:42.848Z,17.80
2018-09-01T21:24:13.355Z,17.78
2018-09-01T21:26:44.737Z,17.82
2018-09-01T21:29:16.230Z,17.77
2018-09-01T21:31:46.452Z,17.87
2018-09-01T21:34:17.516Z,17.84
2018-09-01T21:36:47.712Z,17.76
2018-09-01T21:39:18.083Z,17.75
2018-09-01T21:41:49.701Z,17.77
2018-09-01T21:44:19.818Z,17.74
2018-09-01T21:46:50.750Z,17.76
2018-09-01T21:49:21.303Z,17.79
2018-09-01T21:51:51.833Z,17.81
2018-09-01T21:54:21.889Z,17.85
2018-09-01T21:56:52.997Z,17.75
2018-09-01T21:59:23.958Z,17.82
2018-09-01T22:01:59.260Z,17.82
2018-09-01T22:05:33.667Z,17.83
2018-09-01T22:08:03.794Z,17.81
2018-09-01T22:10:34.184Z,17.87
2018-09-01T22:13:05.970Z,17.80
2018-09-01T22:15:36.142Z,17.84
2018-09-01T22:18:06.356Z,17.81
2018-09-01T22:20:36.618Z,17.90
2018-09-01T22:23:07.073Z,17.84
2018-09-01T22:25:37.650Z,17.87
2018-09-01T22:28:08.099Z,17.77
2018-09-01T22:30:39.077Z,17.79
2018-09-01T22:33:09.779Z,17.76
2018-09-01T22:35:40.513Z,17.78
2018-09-01T22:38:11.361Z,17.87
2018-09-01T22:40:42.473Z,17.81
2018-09-01T22:43:15.039Z,17.77
2018-09-01T22:45:46.831Z,17.74
2018-09-01T22:48:17.443Z,17.76
2018-09-01T22:50:49.810Z,17.84
2018-09-01T22:53:21.193Z,17.79
2018-09-01T22:55:52.963Z,17.87
2018-09-01T22:58:23.551Z,17.88
2018-09-01T23:00:54.523Z,17.84
2018-09-01T23:03:24.993Z,17.91
2018-09-01T23:05:56.886Z,17.90
2018-09-01T23:08:28.384Z,17.76
2018-09-01T23:10:59.864Z,17.70
2018-09-01T23:13:29.885Z,17.78
2018-09-01T23:16:02.979Z,17.79
2018-09-01T23:18:33.033Z,17.82
2018-09-01T23:21:03.724Z,17.75
2018-09-01T23:23:34.419Z,17.86
2018-09-01T23:26:06.015Z,17.83
2018-09-01T23:28:37.157Z,17.74
2018-09-01T23:31:07.548Z,17.71
2018-09-01T23:33:38.250Z,17.80
2018-09-01T23:36:08.601Z,17.83
2018-09-01T23:38:39.617Z,17.75
2018-09-01T23:41:09.632Z,17.86
2018-09-01T23:43:39.745Z,17.79
2018-09-01T23:46:10.821Z,17.76
2018-09-01T23:48:42.009Z,17.71
2018-09-01T23:51:12.752Z,17.67
2018-09-01T23:53:42.862Z,17.72
2018-09-01T23:56:12.895Z,17.72
2018-09-01T23:58:44.052Z,17.72
